Grass Lake, MI (49240)

07:45 AM EDT del 21 Aprile 2015 (GMT -0400)
South of I-94 in Grass Lake Michigan | | Change Station
CLOSE
Current Station
Stazione meteo personale
Location: Grass Lake Charter Township, MI
Altitudine: 1010 ft
Stazioni meteo nelle vicinanze

Alt. 1010 ft 42.28 °N, 84.19 °W | Updated 24 seconds ago

Coperto
Coperto
44.4 °F
Sembra 39 °F
N
11.0
Vento Variabile Vento da Ovest
Gusts 20.0 mph

Oggi
Massima -- | Minima -- °F
--% Possibilità di precip.
Ieri
Massima -- | Minima -- °F
Precip. -- in
6:46 AM 8:24 PM
Luna crescente, 10% visible
Pressione 29.57 in
Visibilità 10.0 miglia
Nuvole Alcuni 3600 ft
Molto nuvoloso 4700 ft
Coperto 6000 ft
Raffreddamento del vento 39 °F
Punto di rugiada 34 °F
Umidità 66%
Piovosità 0.00 in
Spessore del manto nevoso Non disponibile.
Raggi UV 0 fuori da 12
Polline 10.50 fuori da 12
Qualità dell'aria Non disponibile.
Flu Activity Regional
METAR KJXN 211056Z 23012KT 10SM FEW036 BKN047 OVC060 06/00 A2956 RMK AO2 SLP013 T00560000

More Conditions Fewer Conditions

Pressione 29.57 in
Visibilità 10.0 miglia
Nuvole Alcuni 3600 ft
Molto nuvoloso 4700 ft
Coperto 6000 ft
Raffreddamento del vento 39 °F
Punto di rugiada 34 °F
Umidità 66%
Piovosità 0.00 in
Spessore del manto nevoso Non disponibile.
Raggi UV 0 fuori da 12
Polline 10.50 fuori da 12
Qualità dell'aria Non disponibile.
Flu Activity Regional
METAR KJXN 211056Z 23012KT 10SM FEW036 BKN047 OVC060 06/00 A2956 RMK AO2 SLP013 T00560000

More Conditions Fewer Conditions

10-Day Weather Forecast

Almanac

Astronomia

Apr. 21, 2015 Alba Tramonto
Ora attuale
Crepuscolo civile
Crepuscolo nautico
Crepuscolo astronomico
Luna
Estensione della luce visibile
Lunghezza del giorno
Tomorrow will be .
, % of the Moon is Illuminated

Gli estremi di oggi

State Highs State Lows

Community

WunderPhotos

Upload Photos

1,815,349 foto caricate!

WunderBlogs® & News

Nearby

Qualità dell'aria

  Qualità dell'aria Indice AQ Inquinante
Not available.

Profondità neve

Stazione Profondità Altitudine

Attività sismica

Città  Distanza Mag. Data & Ora
Minimo Magnitudo Mostrato è 2.5.

Temperature delle acque costiere

Località Temperatura

Stations

Stazioni meteo nelle vicinanze

Ubicazione della stazione Temp. Raffreddamento del vento Punto di rugiada Umidità Vento Precip. Alt. Aggiornato Tipo